Time;durP1;ratioP1;P1;durP2;ratioP2;P2;SDS_P1;SDS_P2;PMS_P1;PMS_P2;Temp;Humidity;BMP_temperature;BMP_pressure;BME280_temperature;BME280_humidity;BME280_pressure;Samples;Min_cycle;Max_cycle;Signal;HPM_P1;HPM_P2
2023/10/10 00:01:30;;;;;;;13.22;4.20;;;17.20;99.90;;;;;;1868029;77;21105;-80
2023/10/10 00:04:22;;;;;;;8.48;3.42;;;17.20;99.90;;;;;;1868129;77;21346;-80
2023/10/10 00:07:14;;;;;;;10.70;4.00;;;17.20;99.90;;;;;;1868154;77;21156;-81
2023/10/10 00:10:12;;;;;;;10.05;3.47;;;17.10;99.90;;;;;;1868176;77;21058;-80
2023/10/10 00:13:00;;;;;;;9.95;3.65;;;17.10;99.90;;;;;;1868233;77;21109;-80
2023/10/10 00:15:55;;;;;;;9.98;3.27;;;17.00;99.90;;;;;;1867941;77;21609;-80
2023/10/10 00:18:45;;;;;;;7.83;3.25;;;17.00;99.90;;;;;;1868112;77;21054;-80
2023/10/10 00:21:37;;;;;;;10.65;3.98;;;17.00;99.90;;;;;;1867997;77;21607;-80
2023/10/10 00:24:31;;;;;;;12.15;3.52;;;17.00;99.90;;;;;;1867947;77;21558;-80
2023/10/10 00:27:23;;;;;;;9.80;3.52;;;17.00;99.90;;;;;;1867597;77;21183;-80
2023/10/10 00:30:16;;;;;;;11.30;3.22;;;16.90;99.90;;;;;;1863166;77;21058;-80
2023/10/10 00:33:09;;;;;;;11.65;3.20;;;16.90;99.90;;;;;;1861751;76;21217;-80
2023/10/10 00:36:01;;;;;;;7.58;3.40;;;17.00;99.90;;;;;;1861793;77;21574;-79
2023/10/10 00:38:58;;;;;;;7.83;3.33;;;17.00;99.90;;;;;;1867543;76;21097;-79
2023/10/10 00:41:53;;;;;;;9.88;3.45;;;16.90;99.90;;;;;;1868283;76;21210;-79
2023/10/10 00:44:46;;;;;;;8.60;3.75;;;16.80;99.90;;;;;;1868302;76;21103;-79
2023/10/10 00:47:40;;;;;;;7.55;3.12;;;16.70;99.90;;;;;;1867934;76;21113;-80
2023/10/10 00:50:34;;;;;;;6.10;3.22;;;16.80;99.90;;;;;;1859665;77;21158;-79
2023/10/10 00:53:27;;;;;;;10.53;3.17;;;16.90;99.90;;;;;;1859609;77;21116;-80
2023/10/10 00:56:19;;;;;;;9.43;3.25;;;16.90;99.90;;;;;;1859413;77;21181;-79
2023/10/10 00:59:10;;;;;;;7.50;3.40;;;17.00;99.90;;;;;;1859328;77;21063;-79
2023/10/10 01:02:04;;;;;;;6.87;2.90;;;17.00;99.90;;;;;;1859097;77;21114;-79
2023/10/10 01:04:57;;;;;;;9.58;3.12;;;16.80;99.90;;;;;;1859001;77;21573;-80
2023/10/10 01:07:51;;;;;;;7.60;3.25;;;16.80;99.90;;;;;;1859522;77;21126;-80
2023/10/10 01:10:47;;;;;;;9.95;3.40;;;16.80;99.90;;;;;;1859733;77;21130;-81
2023/10/10 01:13:40;;;;;;;10.50;3.45;;;16.70;99.90;;;;;;1839448;77;21110;-81
2023/10/10 01:16:33;;;;;;;8.08;3.27;;;16.60;99.90;;;;;;1859494;77;21175;-80
2023/10/10 01:19:28;;;;;;;10.75;3.20;;;16.40;99.90;;;;;;1859881;77;21114;-80
2023/10/10 01:22:35;;;;;;;5.65;2.95;;;16.40;99.90;;;;;;1859602;77;21166;-80
2023/10/10 01:28:34;;;;;;;8.80;3.62;;;16.40;99.90;;;;;;1861044;76;21506;-80
2023/10/10 01:31:30;;;;;;;6.42;3.22;;;16.40;99.90;;;;;;1874725;76;21073;-80
2023/10/10 01:34:43;;;;;;;8.00;3.60;;;16.40;99.90;;;;;;1872649;76;21113;-80
2023/10/10 01:37:29;;;;;;;7.08;3.30;;;16.40;99.90;;;;;;1867873;77;21129;-80
2023/10/10 01:40:23;;;;;;;8.63;3.17;;;16.40;99.90;;;;;;1867430;77;21145;-80
2023/10/10 01:43:17;;;;;;;8.63;3.30;;;16.40;99.90;;;;;;1867862;77;21105;-80
2023/10/10 01:46:18;;;;;;;11.95;3.37;;;16.50;99.90;;;;;;1867706;77;21187;-80
2023/10/10 01:49:05;;;;;;;12.20;3.87;;;16.50;99.90;;;;;;1867556;77;21175;-80
2023/10/10 01:51:58;;;;;;;9.98;3.40;;;16.40;99.90;;;;;;1868015;77;21073;-80
2023/10/10 01:54:53;;;;;;;7.42;3.40;;;16.40;99.90;;;;;;1867845;77;21172;-80
2023/10/10 01:57:43;;;;;;;7.72;3.10;;;16.30;99.90;;;;;;1868181;77;21534;-80
2023/10/10 02:00:36;;;;;;;8.80;3.45;;;16.30;99.90;;;;;;1867982;77;21553;-80
2023/10/10 02:03:27;;;;;;;8.05;3.08;;;16.30;99.90;;;;;;1868222;77;21150;-80
2023/10/10 02:06:25;;;;;;;7.62;3.15;;;16.20;99.90;;;;;;1868088;77;21117;-80
2023/10/10 02:09:27;;;;;;;6.47;2.75;;;16.20;99.90;;;;;;1868199;77;21178;-80
2023/10/10 02:12:16;;;;;;;7.62;3.60;;;16.20;99.90;;;;;;1868222;77;21121;-80
2023/10/10 02:15:12;;;;;;;7.95;3.10;;;16.20;99.90;;;;;;1867930;77;21190;-80
2023/10/10 02:18:05;;;;;;;9.20;3.10;;;16.10;99.90;;;;;;1867628;77;21142;-80
2023/10/10 02:21:05;;;;;;;10.38;3.60;;;16.10;99.90;;;;;;1868065;77;21104;-80
2023/10/10 02:23:53;;;;;;;8.35;3.52;;;16.10;99.90;;;;;;1868344;77;21114;-80
2023/10/10 02:26:43;;;;;;;8.20;3.33;;;16.10;99.90;;;;;;1859883;77;21172;-80
2023/10/10 02:29:49;;;;;;;9.43;3.60;;;16.10;99.90;;;;;;1861258;76;21131;-80
2023/10/10 02:32:41;;;;;;;9.10;3.12;;;16.10;99.90;;;;;;1840987;78;21162;-80
2023/10/10 02:35:46;;;;;;;7.72;3.58;;;16.00;99.90;;;;;;1840874;78;21380;-80
2023/10/10 02:38:32;;;;;;;9.15;3.47;;;16.10;99.90;;;;;;1840919;78;21175;-80
2023/10/10 02:41:26;;;;;;;9.63;3.37;;;16.10;99.90;;;;;;1841212;78;21220;-80
2023/10/10 02:44:38;;;;;;;9.58;3.30;;;16.00;99.90;;;;;;1841215;78;21143;-80
2023/10/10 02:47:30;;;;;;;11.70;3.58;;;16.00;99.90;;;;;;1841418;78;21189;-80
2023/10/10 02:50:40;;;;;;;8.28;3.37;;;16.00;99.90;;;;;;1841137;78;21222;-80
2023/10/10 02:53:32;;;;;;;11.95;3.62;;;16.00;99.90;;;;;;1841009;78;21137;-80
2023/10/10 02:56:24;;;;;;;7.03;3.52;;;16.00;99.90;;;;;;1840940;78;21118;-80
2023/10/10 02:59:22;;;;;;;9.15;3.58;;;16.00;99.90;;;;;;1841278;78;21195;-80
2023/10/10 03:02:19;;;;;;;7.45;3.45;;;15.90;99.90;;;;;;1841257;78;21221;-80
2023/10/10 03:05:15;;;;;;;7.47;3.05;;;15.90;99.90;;;;;;1841378;78;21079;-80
2023/10/10 03:08:12;;;;;;;9.93;3.22;;;15.90;99.90;;;;;;1841512;78;21143;-80
2023/10/10 03:11:00;;;;;;;8.35;2.92;;;15.80;99.90;;;;;;1841582;78;21114;-80
2023/10/10 03:13:54;;;;;;;7.97;3.12;;;15.80;99.90;;;;;;1841060;78;21137;-80
2023/10/10 03:16:44;;;;;;;8.35;3.45;;;15.70;99.90;;;;;;1841070;78;21119;-80
2023/10/10 03:19:39;;;;;;;7.42;3.45;;;15.70;99.90;;;;;;1841329;78;21158;-80
2023/10/10 03:22:45;;;;;;;9.88;3.08;;;15.70;99.90;;;;;;1841315;78;21123;-80
2023/10/10 03:25:28;;;;;;;7.12;3.10;;;15.70;99.90;;;;;;1841447;78;21173;-80
2023/10/10 03:28:22;;;;;;;7.10;3.25;;;15.60;99.90;;;;;;1841277;78;21123;-80
2023/10/10 03:31:25;;;;;;;7.83;3.22;;;15.60;99.90;;;;;;1844434;77;21871;-80
2023/10/10 03:34:20;;;;;;;8.90;3.30;;;15.60;99.90;;;;;;1858069;77;21123;-80
2023/10/10 03:37:27;;;;;;;8.78;2.85;;;15.60;99.90;;;;;;1858215;77;21184;-80
2023/10/10 03:40:47;;;;;;;9.88;2.65;;;15.50;99.90;;;;;;1858271;77;21265;-80
2023/10/10 05:24:27;;;;;;;9.58;3.83;;;15.20;99.90;;;;;;1823280;76;21134;-80
2023/10/10 05:27:18;;;;;;;12.60;4.58;;;15.10;99.90;;;;;;1840955;76;21131;-80
2023/10/10 05:30:23;;;;;;;11.18;4.00;;;15.00;99.90;;;;;;1841198;78;21261;-80
2023/10/10 05:33:06;;;;;;;8.05;3.50;;;14.90;99.90;;;;;;1838279;76;21210;-80
2023/10/10 05:36:06;;;;;;;6.85;3.50;;;14.80;99.90;;;;;;1818924;79;21163;-80
2023/10/10 05:38:58;;;;;;;11.22;4.30;;;14.90;99.90;;;;;;1818739;79;21128;-80
2023/10/10 05:41:54;;;;;;;11.85;4.03;;;15.00;99.90;;;;;;1818553;79;21133;-81
2023/10/10 05:44:44;;;;;;;9.35;3.70;;;15.00;99.90;;;;;;1818644;79;21621;-80
2023/10/10 05:47:35;;;;;;;14.53;4.60;;;14.90;99.90;;;;;;1818514;79;21131;-80
2023/10/10 05:50:27;;;;;;;14.68;3.92;;;14.90;99.90;;;;;;1818689;77;21500;-81
2023/10/10 05:53:20;;;;;;;10.00;4.30;;;14.90;99.90;;;;;;1818680;77;21622;-81
2023/10/10 05:56:16;;;;;;;13.20;4.33;;;14.90;99.90;;;;;;1818293;77;21074;-81
2023/10/10 05:59:08;;;;;;;11.83;4.15;;;14.80;99.90;;;;;;1818193;79;21200;-81
2023/10/10 06:02:01;;;;;;;12.03;3.40;;;14.80;99.90;;;;;;1818265;79;21671;-80
2023/10/10 06:04:53;;;;;;;9.43;3.80;;;14.80;99.90;;;;;;1818677;79;21746;-81
2023/10/10 06:07:45;;;;;;;12.03;3.95;;;14.80;99.90;;;;;;1818775;79;21129;-82
2023/10/10 06:10:36;;;;;;;12.07;3.92;;;14.80;99.90;;;;;;1818454;77;21078;-80
2023/10/10 06:13:29;;;;;;;12.60;4.30;;;14.80;99.90;;;;;;1818549;77;21132;-80
2023/10/10 06:16:23;;;;;;;13.72;4.55;;;14.80;99.90;;;;;;1818604;79;21148;-80
2023/10/10 06:19:20;;;;;;;9.78;3.95;;;14.90;99.90;;;;;;1818540;79;21648;-80
2023/10/10 06:22:08;;;;;;;11.97;5.00;;;15.00;99.90;;;;;;1818714;79;21074;-80
2023/10/10 06:25:01;;;;;;;13.53;4.78;;;15.00;99.90;;;;;;1818367;77;21177;-80
2023/10/10 06:27:54;;;;;;;11.55;4.30;;;15.00;99.90;;;;;;1818266;79;21203;-81
2023/10/10 06:30:48;;;;;;;10.23;3.98;;;15.00;99.90;;;;;;1818504;79;21117;-81
2023/10/10 06:33:41;;;;;;;11.50;3.95;;;15.00;99.90;;;;;;1818472;77;21131;-81
2023/10/10 06:36:33;;;;;;;10.53;3.98;;;15.10;99.90;;;;;;1816350;79;21195;-81
2023/10/10 06:39:32;;;;;;;12.35;3.92;;;15.10;99.90;;;;;;1809094;79;21169;-81
2023/10/10 06:42:27;;;;;;;11.53;4.15;;;15.10;99.90;;;;;;1809406;78;21125;-81
2023/10/10 06:45:18;;;;;;;11.15;4.45;;;15.20;99.90;;;;;;1808953;79;21211;-81
2023/10/10 06:48:05;;;;;;;11.38;4.25;;;15.20;99.90;;;;;;1808109;79;21184;-81
2023/10/10 06:50:56;;;;;;;10.08;3.87;;;15.20;99.90;;;;;;1807393;78;21066;-81
2023/10/10 06:53:48;;;;;;;8.60;3.75;;;15.20;99.90;;;;;;1808968;79;21129;-81
2023/10/10 06:56:53;;;;;;;9.45;4.00;;;15.20;99.90;;;;;;1809252;79;21612;-81
2023/10/10 06:59:39;;;;;;;14.25;4.25;;;15.30;99.90;;;;;;1809204;79;21156;-81
2023/10/10 07:02:39;;;;;;;9.53;4.47;;;15.40;99.90;;;;;;1808922;79;21179;-80
2023/10/10 07:05:27;;;;;;;16.02;4.30;;;15.50;99.90;;;;;;1808898;79;21235;-81
2023/10/10 07:08:24;;;;;;;11.28;3.75;;;15.50;99.90;;;;;;1800871;79;21122;-81
2023/10/10 07:11:20;;;;;;;10.43;4.00;;;15.50;99.90;;;;;;1808829;79;21223;-82
2023/10/10 07:14:09;;;;;;;13.85;5.05;;;15.50;99.90;;;;;;1808880;79;21164;-80
2023/10/10 07:16:59;;;;;;;10.50;4.17;;;15.50;99.90;;;;;;1809029;79;21124;-80
2023/10/10 07:23:02;;;;;;;9.45;4.37;;;15.60;99.90;;;;;;1775943;79;21146;-80
2023/10/10 07:26:00;;;;;;;8.83;3.72;;;15.70;99.90;;;;;;1809165;79;21162;-82
2023/10/10 07:28:54;;;;;;;13.40;4.47;;;15.70;99.90;;;;;;1809220;79;21148;-80
2023/10/10 07:31:45;;;;;;;12.43;6.17;;;15.70;99.90;;;;;;1808917;79;21110;-80
2023/10/10 07:34:41;;;;;;;17.00;5.05;;;15.80;99.90;;;;;;1808650;79;21098;-80
2023/10/10 07:37:31;;;;;;;16.17;4.78;;;15.80;99.90;;;;;;1809698;79;21129;-81
2023/10/10 07:40:30;;;;;;;14.38;4.87;;;15.80;99.90;;;;;;1808927;79;21202;-80
2023/10/10 07:43:16;;;;;;;11.83;4.12;;;15.80;99.90;;;;;;1809197;79;21152;-80
2023/10/10 07:46:19;;;;;;;13.50;4.12;;;15.90;99.90;;;;;;1810268;79;21183;-80
2023/10/10 07:49:08;;;;;;;12.55;4.00;;;16.00;99.90;;;;;;1808810;79;21156;-80
2023/10/10 07:52:03;;;;;;;10.88;4.08;;;16.00;99.90;;;;;;1809071;79;21200;-80
2023/10/10 07:55:03;;;;;;;11.43;4.12;;;16.10;99.90;;;;;;1809028;79;21166;-80
2023/10/10 07:57:56;;;;;;;15.18;4.47;;;16.10;99.90;;;;;;1808912;79;21152;-80
2023/10/10 08:00:47;;;;;;;15.72;4.97;;;16.20;99.90;;;;;;1808679;79;21532;-80
2023/10/10 08:03:43;;;;;;;19.82;5.00;;;16.20;99.90;;;;;;1808814;79;21226;-80
2023/10/10 08:06:34;;;;;;;12.18;4.62;;;16.30;99.90;;;;;;1805893;79;21078;-80
2023/10/10 08:09:29;;;;;;;12.88;4.28;;;16.40;99.90;;;;;;1804582;79;21594;-80
2023/10/10 08:12:29;;;;;;;13.08;4.12;;;16.50;99.90;;;;;;1804843;79;21196;-80
2023/10/10 08:15:20;;;;;;;13.62;4.47;;;16.50;99.90;;;;;;1804811;79;21140;-80
2023/10/10 08:18:12;;;;;;;13.72;4.50;;;16.60;99.90;;;;;;1804878;79;21602;-80
2023/10/10 08:21:10;;;;;;;15.72;5.05;;;16.70;99.90;;;;;;1804703;79;21195;-80
2023/10/10 08:24:02;;;;;;;17.50;4.53;;;16.80;99.90;;;;;;1804691;79;21560;-80
2023/10/10 08:26:53;;;;;;;12.03;5.08;;;16.90;99.90;;;;;;1805017;79;21631;-80
2023/10/10 08:29:47;;;;;;;14.23;4.55;;;17.00;99.90;;;;;;1804546;79;21579;-80
2023/10/10 08:32:38;;;;;;;16.95;5.37;;;17.00;99.90;;;;;;1804859;79;21144;-80
2023/10/10 08:35:30;;;;;;;16.82;4.87;;;17.20;99.90;;;;;;1805994;79;21170;-80
2023/10/10 08:38:22;;;;;;;16.57;4.28;;;17.30;99.90;;;;;;1816630;79;21231;-80
2023/10/10 08:41:14;;;;;;;16.12;4.10;;;17.40;99.90;;;;;;1822362;78;21672;-80
2023/10/10 08:44:07;;;;;;;12.93;4.75;;;17.40;99.90;;;;;;1822449;78;21236;-80
2023/10/10 08:47:04;;;;;;;9.63;3.98;;;17.50;99.90;;;;;;1822147;79;21194;-80
2023/10/10 08:49:57;;;;;;;14.20;3.90;;;17.60;99.90;;;;;;1816709;78;21157;-80
2023/10/10 08:52:51;;;;;;;13.55;4.05;;;17.70;99.90;;;;;;1816721;78;21204;-80
2023/10/10 08:55:43;;;;;;;13.98;4.53;;;17.80;99.90;;;;;;1817769;78;21176;-80
2023/10/10 08:58:35;;;;;;;12.10;4.40;;;17.90;99.90;;;;;;1816691;79;21133;-80
2023/10/10 09:01:29;;;;;;;10.43;3.60;;;17.90;99.90;;;;;;1822385;78;21165;-80
2023/10/10 09:04:30;;;;;;;12.68;4.03;;;18.00;99.90;;;;;;1817232;78;21737;-80
2023/10/10 09:07:21;;;;;;;13.72;4.72;;;18.20;99.90;;;;;;1816214;79;21392;-80
2023/10/10 09:10:17;;;;;;;10.93;5.03;;;18.20;99.90;;;;;;1816527;78;21140;-80
2023/10/10 09:13:09;;;;;;;12.05;4.42;;;18.30;99.90;;;;;;1817068;78;21166;-80
2023/10/10 09:16:07;;;;;;;12.50;4.08;;;18.40;99.90;;;;;;1816694;78;21219;-81
2023/10/10 09:19:09;;;;;;;10.85;3.72;;;18.50;99.90;;;;;;1816218;78;21078;-81
2023/10/10 09:22:02;;;;;;;14.75;3.40;;;18.60;99.90;;;;;;1815982;79;21160;-80
2023/10/10 09:24:56;;;;;;;11.83;3.77;;;18.60;99.90;;;;;;1816485;78;21203;-81
2023/10/10 09:27:59;;;;;;;11.75;3.60;;;18.70;99.90;;;;;;1816306;79;21150;-81
2023/10/10 09:30:59;;;;;;;11.38;4.15;;;18.90;99.90;;;;;;1816284;78;21124;-80
2023/10/10 09:33:45;;;;;;;17.25;4.20;;;18.90;99.90;;;;;;1816318;78;21125;-80
2023/10/10 09:39:36;;;;;;;15.50;3.80;;;19.20;99.90;;;;;;1957122;72;22208;-82
2023/10/10 09:42:45;;;;;;;14.33;3.92;;;19.20;99.90;;;;;;1916698;75;21556;-81
2023/10/10 09:45:55;;;;;;;;;;;19.30;99.90;;;;;;1919463;75;21510;-80
2023/10/10 09:58:16;;;;;;;16.02;3.75;;;19.70;99.90;;;;;;1957013;72;22233;-81
2023/10/10 10:01:14;;;;;;;13.45;3.67;;;19.80;99.90;;;;;;1916954;75;21344;-82
2023/10/10 10:04:11;;;;;;;11.18;3.67;;;19.90;99.90;;;;;;1916752;75;21197;-81
2023/10/10 10:07:12;;;;;;;16.70;3.65;;;20.00;99.90;;;;;;1916816;75;21624;-82
2023/10/10 10:10:18;;;;;;;13.28;4.10;;;20.10;99.90;;;;;;1916813;75;21123;-80
2023/10/10 10:13:37;;;;;;;16.27;3.62;;;20.20;99.90;;;;;;1916792;75;21684;-80
2023/10/10 10:16:35;;;;;;;9.88;3.10;;;20.30;99.90;;;;;;1916523;75;21110;-80
2023/10/10 10:19:28;;;;;;;10.78;4.10;;;20.40;99.90;;;;;;1879775;76;21070;-80
2023/10/10 10:22:21;;;;;;;13.75;4.00;;;20.50;99.90;;;;;;1916490;75;21102;-80
2023/10/10 10:25:25;;;;;;;13.75;4.08;;;20.60;99.90;;;;;;1916892;75;21066;-81
2023/10/10 10:28:28;;;;;;;11.53;3.60;;;20.70;99.90;;;;;;1916868;75;21144;-81
2023/10/10 10:31:20;;;;;;;14.00;3.90;;;20.70;99.90;;;;;;1916960;75;21103;-80
2023/10/10 10:34:23;;;;;;;12.68;2.90;;;20.80;99.90;;;;;;1916674;75;21615;-80
2023/10/10 10:37:19;;;;;;;11.45;3.33;;;20.90;99.90;;;;;;1916978;75;21359;-80
2023/10/10 10:40:24;;;;;;;11.88;3.10;;;20.90;99.90;;;;;;1916891;75;21060;-80
2023/10/10 10:43:24;;;;;;;11.48;3.10;;;21.00;99.90;;;;;;1916907;75;21157;-81
2023/10/10 10:46:16;;;;;;;13.80;3.70;;;21.10;99.90;;;;;;1916387;75;21171;-80
2023/10/10 10:49:12;;;;;;;8.50;3.30;;;21.20;99.90;;;;;;1916584;75;21523;-80
2023/10/10 10:52:18;;;;;;;10.25;3.75;;;21.30;99.90;;;;;;1879575;76;21167;-80
2023/10/10 10:55:23;;;;;;;9.00;3.55;;;21.30;99.90;;;;;;1916551;75;21106;-80
2023/10/10 10:58:21;;;;;;;10.65;3.20;;;21.40;99.90;;;;;;1870413;76;21593;-80
2023/10/10 11:01:16;;;;;;;11.43;3.72;;;21.50;99.90;;;;;;1854862;77;21127;-80
2023/10/10 11:04:13;;;;;;;11.18;3.87;;;21.50;99.90;;;;;;1855190;77;21131;-80
2023/10/10 11:07:05;;;;;;;11.68;3.30;;;21.70;99.90;;;;;;1855326;77;21112;-80
2023/10/10 11:10:06;;;;;;;12.00;3.40;;;21.70;99.90;;;;;;1854526;77;21637;-80
2023/10/10 11:12:48;;;;;;;11.10;3.08;;;21.90;99.90;;;;;;1854546;77;21184;-80
2023/10/10 11:15:40;;;;;;;7.85;2.85;;;21.90;99.90;;;;;;1854148;77;21218;-80
2023/10/10 11:18:34;;;;;;;12.88;3.98;;;22.00;99.90;;;;;;1854238;77;21207;-80
2023/10/10 11:21:30;;;;;;;11.90;4.08;;;22.10;99.90;;;;;;1854417;77;21556;-81
2023/10/10 11:24:24;;;;;;;10.17;4.90;;;22.20;99.90;;;;;;1854480;77;21237;-80
2023/10/10 11:27:21;;;;;;;11.93;3.70;;;22.30;99.90;;;;;;1854161;77;21411;-79
2023/10/10 11:30:11;;;;;;;10.53;3.52;;;22.40;99.90;;;;;;1854097;77;21215;-80
2023/10/10 11:33:17;;;;;;;13.65;3.80;;;22.50;99.90;;;;;;1854423;77;21104;-80
2023/10/10 11:36:29;;;;;;;13.60;3.75;;;22.60;99.90;;;;;;1854014;77;21149;-80
2023/10/10 11:39:34;;;;;;;10.80;3.05;;;22.70;99.90;;;;;;1854177;77;21076;-80
2023/10/10 11:42:30;;;;;;;11.70;3.60;;;22.80;99.90;;;;;;1854431;77;21103;-80
2023/10/10 11:45:26;;;;;;;11.57;3.02;;;22.80;99.90;;;;;;1854419;77;21609;-80
2023/10/10 11:48:17;;;;;;;11.43;3.67;;;22.80;99.90;;;;;;1854417;77;21127;-80
2023/10/10 11:51:11;;;;;;;8.55;3.37;;;23.00;99.90;;;;;;1854443;77;21158;-80
2023/10/10 11:54:02;;;;;;;14.75;3.30;;;23.10;99.90;;;;;;1854080;77;21150;-79
2023/10/10 11:56:54;;;;;;;12.37;3.27;;;23.20;99.90;;;;;;1854200;77;21104;-80
2023/10/10 11:59:46;;;;;;;11.33;3.52;;;23.20;99.90;;;;;;1863120;77;21159;-80
2023/10/10 12:02:44;;;;;;;12.65;3.33;;;23.20;99.90;;;;;;1916410;75;21135;-80
2023/10/10 12:05:48;;;;;;;13.18;3.85;;;23.40;99.90;;;;;;1916101;75;21090;-81
2023/10/10 12:08:40;;;;;;;12.18;3.15;;;23.40;99.90;;;;;;1915829;75;21647;-79
2023/10/10 12:11:33;;;;;;;9.85;2.92;;;23.50;99.90;;;;;;1916085;75;21615;-79
2023/10/10 12:14:24;;;;;;;12.93;3.30;;;23.50;99.90;;;;;;1879062;76;21146;-79
2023/10/10 12:17:20;;;;;;;12.50;3.08;;;23.60;99.90;;;;;;1915631;75;21098;-80
2023/10/10 12:20:10;;;;;;;10.45;2.75;;;23.70;99.90;;;;;;1916068;75;21160;-80
2023/10/10 12:23:01;;;;;;;12.73;2.75;;;23.80;99.90;;;;;;1916123;75;21149;-80
2023/10/10 12:25:57;;;;;;;10.50;3.12;;;23.90;99.90;;;;;;1916019;75;21153;-80
2023/10/10 12:28:52;;;;;;;12.53;3.20;;;23.90;99.90;;;;;;1915837;75;21086;-79
2023/10/10 12:31:41;;;;;;;11.83;3.30;;;24.00;99.90;;;;;;1915731;75;21193;-80
2023/10/10 12:34:33;;;;;;;12.93;2.77;;;24.00;99.90;;;;;;1916006;75;21526;-79
2023/10/10 12:37:28;;;;;;;13.20;3.20;;;24.20;99.90;;;;;;1916028;75;21094;-80
2023/10/10 12:40:20;;;;;;;14.60;4.37;;;24.20;99.90;;;;;;1916234;75;21112;-80
2023/10/10 12:43:12;;;;;;;11.60;3.10;;;24.30;99.90;;;;;;1916204;75;21208;-80
2023/10/10 12:46:04;;;;;;;13.15;3.10;;;24.40;99.90;;;;;;1915710;75;21544;-79
2023/10/10 12:48:56;;;;;;;15.75;3.25;;;24.50;99.90;;;;;;1915944;75;21098;-79
2023/10/10 12:51:48;;;;;;;11.28;3.60;;;24.60;99.90;;;;;;1915711;75;21236;-79
2023/10/10 12:54:41;;;;;;;9.88;3.35;;;24.60;99.90;;;;;;1915598;75;21147;-79
2023/10/10 12:57:36;;;;;;;17.05;3.00;;;24.50;99.90;;;;;;1878473;76;21619;-79
2023/10/10 13:00:33;;;;;;;11.33;2.92;;;24.60;99.90;;;;;;1924246;74;21130;-79
2023/10/10 13:03:23;;;;;;;10.85;3.33;;;24.70;99.90;;;;;;1925584;74;21126;-79
2023/10/10 13:06:15;;;;;;;10.40;3.08;;;24.80;99.90;;;;;;1925176;74;21156;-79
2023/10/10 13:09:08;;;;;;;11.35;3.40;;;24.90;99.90;;;;;;1925090;74;21542;-79
2023/10/10 13:12:02;;;;;;;15.25;3.80;;;24.90;99.90;;;;;;1925766;74;21097;-79
2023/10/10 13:15:05;;;;;;;12.85;3.12;;;24.90;99.90;;;;;;1925657;74;21089;-79
2023/10/10 13:17:54;;;;;;;11.05;3.00;;;25.00;99.90;;;;;;1925829;74;21172;-80
2023/10/10 13:20:50;;;;;;;11.80;3.00;;;25.00;99.90;;;;;;1925553;74;21102;-80
2023/10/10 13:23:43;;;;;;;10.65;3.25;;;25.10;99.90;;;;;;1925563;74;21116;-79
2023/10/10 13:26:32;;;;;;;9.88;2.95;;;25.20;99.90;;;;;;1925509;74;21176;-79
2023/10/10 13:29:23;;;;;;;13.25;3.55;;;25.30;99.90;;;;;;1888573;76;21070;-79
2023/10/10 13:32:15;;;;;;;11.28;2.75;;;25.30;99.90;;;;;;1932082;74;21097;-79
2023/10/10 13:35:09;;;;;;;8.45;2.80;;;25.40;99.90;;;;;;1932199;74;21113;-79
2023/10/10 13:38:00;;;;;;;11.20;3.30;;;25.50;99.90;;;;;;1888759;76;21113;-79
2023/10/10 13:40:52;;;;;;;13.75;3.27;;;25.70;99.90;;;;;;1932104;74;21123;-79
2023/10/10 13:43:44;;;;;;;9.95;3.42;;;25.70;99.50;;;;;;1931892;74;21091;-79
2023/10/10 13:46:36;;;;;;;11.78;3.50;;;25.80;99.60;;;;;;1888163;76;21125;-79
2023/10/10 13:49:27;;;;;;;9.85;3.08;;;25.80;99.30;;;;;;1932198;74;21043;-79
2023/10/10 13:52:19;;;;;;;8.73;2.90;;;26.00;98.90;;;;;;1888357;76;21149;-79
2023/10/10 13:55:11;;;;;;;12.30;3.50;;;26.00;98.80;;;;;;1931672;74;21465;-79
2023/10/10 13:58:16;;;;;;;8.55;3.30;;;26.00;98.60;;;;;;1931324;74;21182;-79
2023/10/10 14:01:18;;;;;;;12.03;3.27;;;26.10;98.30;;;;;;1919064;74;21071;-79
2023/10/10 14:04:15;;;;;;;9.48;3.37;;;26.10;98.40;;;;;;1915685;75;21105;-81
2023/10/10 14:07:11;;;;;;;16.65;3.70;;;26.20;98.30;;;;;;1865296;77;21055;-81
2023/10/10 14:10:05;;;;;;;11.25;3.15;;;26.30;98.00;;;;;;1853898;77;21178;-79
2023/10/10 14:12:56;;;;;;;12.85;2.70;;;26.50;98.00;;;;;;1827955;78;21111;-80
2023/10/10 14:15:57;;;;;;;12.50;3.67;;;27.10;97.40;;;;;;1865276;77;21527;-79
2023/10/10 14:18:50;;;;;;;12.68;3.00;;;29.00;95.90;;;;;;1854735;77;21562;-80
2023/10/10 14:21:42;;;;;;;10.32;3.20;;;30.30;92.60;;;;;;1827708;78;21112;-80
2023/10/10 14:24:35;;;;;;;15.60;3.95;;;31.50;90.70;;;;;;1865422;77;21466;-80
2023/10/10 14:27:27;;;;;;;11.15;3.45;;;32.40;86.50;;;;;;1854269;77;21158;-80
2023/10/10 14:30:23;;;;;;;13.32;3.42;;;33.10;81.70;;;;;;1827758;78;21126;-80
2023/10/10 14:33:15;;;;;;;9.38;3.05;;;33.70;78.00;;;;;;1865644;77;21152;-80
2023/10/10 14:36:11;;;;;;;9.78;3.27;;;34.40;74.00;;;;;;1854631;77;21279;-80
2023/10/10 14:39:02;;;;;;;11.20;3.47;;;32.60;72.20;;;;;;1828080;78;21159;-80
2023/10/10 14:41:54;;;;;;;16.12;3.58;;;30.60;74.90;;;;;;1865359;77;21107;-80
2023/10/10 14:44:47;;;;;;;10.45;3.45;;;29.40;77.40;;;;;;1854436;77;21543;-80
2023/10/10 14:47:42;;;;;;;12.23;3.35;;;28.80;79.20;;;;;;1828044;78;21109;-80
2023/10/10 14:50:36;;;;;;;10.48;2.92;;;28.40;80.20;;;;;;1865601;77;21130;-79
2023/10/10 14:53:26;;;;;;;13.38;3.45;;;28.00;80.90;;;;;;1854745;77;21148;-79
2023/10/10 14:56:22;;;;;;;17.02;3.33;;;27.80;81.80;;;;;;1828029;78;21092;-80
2023/10/10 14:59:17;;;;;;;11.05;3.47;;;27.70;82.50;;;;;;1865717;77;21059;-79
2023/10/10 15:02:12;;;;;;;15.90;3.30;;;27.60;83.30;;;;;;1862176;77;21182;-79
2023/10/10 15:05:09;;;;;;;11.03;3.42;;;27.40;84.00;;;;;;1914477;75;21106;-79
2023/10/10 15:07:55;;;;;;;9.98;3.50;;;27.30;84.80;;;;;;1914652;75;21199;-79
2023/10/10 15:10:46;;;;;;;11.93;3.50;;;27.30;85.50;;;;;;1914600;75;21151;-79
2023/10/10 15:13:41;;;;;;;14.47;4.00;;;27.10;85.80;;;;;;1914632;75;21071;-79
2023/10/10 15:16:35;;;;;;;16.75;3.72;;;27.10;86.70;;;;;;1914362;75;21054;-80
2023/10/10 15:19:36;;;;;;;12.82;3.87;;;27.30;87.70;;;;;;1914375;75;21173;-79
2023/10/10 15:22:40;;;;;;;11.25;3.47;;;29.10;86.00;;;;;;1914581;75;21098;-80
2023/10/10 15:25:44;;;;;;;11.30;3.22;;;31.50;81.20;;;;;;1914743;75;21122;-79
2023/10/10 15:28:40;;;;;;;12.47;3.58;;;32.80;77.30;;;;;;1914812;75;21176;-79
2023/10/10 15:31:32;;;;;;;14.35;3.42;;;33.40;75.10;;;;;;1914569;75;21268;-79
2023/10/10 15:34:24;;;;;;;14.98;4.72;;;33.70;74.00;;;;;;1914455;75;21108;-79
2023/10/10 15:37:15;;;;;;;10.53;4.05;;;34.10;72.40;;;;;;1914619;75;21558;-79
2023/10/10 15:40:13;;;;;;;11.03;3.58;;;34.60;70.70;;;;;;1914375;75;21110;-80
2023/10/10 15:43:03;;;;;;;13.08;3.77;;;34.70;69.60;;;;;;1914897;75;21075;-80
2023/10/10 15:45:57;;;;;;;12.40;3.60;;;34.70;68.90;;;;;;1914588;75;21182;-79
2023/10/10 15:48:49;;;;;;;10.28;3.80;;;35.00;68.30;;;;;;1914327;75;21176;-79
2023/10/10 15:51:44;;;;;;;9.43;3.65;;;35.30;67.00;;;;;;1914535;75;21152;-79
2023/10/10 15:54:36;;;;;;;10.48;3.77;;;35.30;66.30;;;;;;1914624;75;21090;-79
2023/10/10 15:57:30;;;;;;;10.88;4.05;;;35.10;66.10;;;;;;1914366;75;21199;-80
2023/10/10 16:00:32;;;;;;;16.32;4.37;;;34.40;66.70;;;;;;1914344;75;21348;-80
2023/10/10 16:03:19;;;;;;;18.07;4.75;;;33.50;68.10;;;;;;1902666;75;21130;-80
2023/10/10 16:06:19;;;;;;;14.35;4.33;;;32.70;69.60;;;;;;1901508;75;21114;-80
2023/10/10 16:09:29;;;;;;;16.07;4.28;;;31.90;71.40;;;;;;1901522;75;21151;-80
2023/10/10 16:12:20;;;;;;;13.55;4.47;;;31.20;72.30;;;;;;1914108;75;21121;-80
2023/10/10 16:15:18;;;;;;;15.40;5.30;;;30.30;73.20;;;;;;1913585;75;21102;-80
2023/10/10 16:18:10;;;;;;;13.25;3.67;;;29.50;74.80;;;;;;1913944;75;21132;-79
2023/10/10 16:21:04;;;;;;;16.07;4.22;;;28.70;76.70;;;;;;1914200;75;21148;-80
2023/10/10 16:23:56;;;;;;;14.63;4.75;;;28.10;78.50;;;;;;1914402;75;21217;-79
2023/10/10 16:26:48;;;;;;;18.25;4.45;;;27.50;80.60;;;;;;1914207;75;21142;-79
2023/10/10 16:29:40;;;;;;;8.73;3.55;;;27.00;82.50;;;;;;1914119;75;21106;-79
2023/10/10 16:32:39;;;;;;;12.65;3.92;;;26.70;83.80;;;;;;1914136;75;21106;-79
2023/10/10 16:35:32;;;;;;;10.75;3.55;;;26.40;84.20;;;;;;1914072;75;21289;-79
2023/10/10 16:38:31;;;;;;;12.15;3.75;;;26.00;85.90;;;;;;1914313;75;21187;-79
2023/10/10 16:41:28;;;;;;;14.10;3.90;;;25.70;87.70;;;;;;1902021;75;21087;-79
2023/10/10 16:44:21;;;;;;;15.65;3.80;;;25.30;88.60;;;;;;1902003;75;21189;-79
2023/10/10 16:47:21;;;;;;;13.58;3.83;;;25.10;90.70;;;;;;1901746;75;21094;-80
2023/10/10 16:50:13;;;;;;;13.45;3.47;;;24.90;91.50;;;;;;1901821;75;21500;-79
2023/10/10 16:53:08;;;;;;;14.15;3.45;;;24.80;92.60;;;;;;1902250;75;21176;-79
2023/10/10 16:56:07;;;;;;;11.60;3.42;;;24.60;93.60;;;;;;1901768;75;21243;-80
2023/10/10 16:58:58;;;;;;;9.23;3.30;;;24.40;94.00;;;;;;1901989;75;21060;-79
2023/10/10 17:01:57;;;;;;;11.18;3.62;;;24.30;95.00;;;;;;1902009;75;21183;-79